Time;durP1;ratioP1;P1;durP2;ratioP2;P2;SDS_P1;SDS_P2;PMS_P1;PMS_P2;Temp;Humidity;BMP_temperature;BMP_pressure;BME280_temperature;BME280_humidity;BME280_pressure;Samples;Min_cycle;Max_cycle;Signal;HPM_P1;HPM_P2
2023/12/11 00:01:43;;;;;;;8.10;5.40;;;4.90;70.50;;;;;;5036849;28;20025;-82
2023/12/11 00:04:09;;;;;;;8.65;5.75;;;4.90;70.60;;;;;;5018349;28;20029;-83
2023/12/11 00:06:35;;;;;;;9.90;6.05;;;4.90;70.60;;;;;;5036285;28;20383;-82
2023/12/11 00:09:01;;;;;;;9.40;6.25;;;4.90;70.50;;;;;;5036423;28;20083;-83
2023/12/11 00:11:27;;;;;;;9.63;6.93;;;5.00;70.60;;;;;;5036461;28;20451;-84
2023/12/11 00:13:53;;;;;;;8.07;6.05;;;4.90;70.60;;;;;;5018380;28;20033;-85
2023/12/11 00:16:19;;;;;;;9.63;5.90;;;4.90;70.60;;;;;;5018529;28;20040;-83
2023/12/11 00:18:45;;;;;;;7.03;5.22;;;4.90;70.60;;;;;;5036178;28;20025;-82
2023/12/11 00:21:11;;;;;;;9.93;6.18;;;4.90;70.60;;;;;;5018553;28;20030;-84
2023/12/11 00:23:37;;;;;;;7.95;5.63;;;4.90;70.60;;;;;;5035756;28;20060;-84
2023/12/11 00:26:03;;;;;;;8.38;6.15;;;4.90;70.60;;;;;;5035615;28;20048;-81
2023/12/11 00:28:29;;;;;;;6.95;5.22;;;4.90;70.70;;;;;;5035460;28;20028;-82
2023/12/11 00:30:54;;;;;;;7.18;5.40;;;4.90;70.70;;;;;;5035423;28;20379;-84
2023/12/11 00:33:20;;;;;;;6.95;5.25;;;4.90;70.70;;;;;;5035983;28;20414;-83
2023/12/11 00:35:46;;;;;;;6.13;4.88;;;4.90;70.70;;;;;;5017598;28;20032;-83
2023/12/11 00:38:12;;;;;;;8.18;5.63;;;4.90;70.70;;;;;;5036313;28;20037;-83
2023/12/11 00:40:38;;;;;;;6.57;5.10;;;4.90;70.70;;;;;;5035570;28;20033;-82
2023/12/11 00:43:04;;;;;;;5.95;4.80;;;4.90;70.70;;;;;;5035994;28;20102;-82
2023/12/11 00:45:29;;;;;;;6.38;4.97;;;5.00;70.70;;;;;;5035457;28;20033;-83
2023/12/11 00:47:55;;;;;;;7.78;5.03;;;4.90;70.70;;;;;;5018188;28;20021;-83
2023/12/11 00:50:21;;;;;;;6.05;4.80;;;4.90;70.70;;;;;;5035680;28;20466;-84
2023/12/11 00:52:48;;;;;;;8.38;5.35;;;4.90;70.80;;;;;;5035293;28;20099;-85
2023/12/11 00:55:13;;;;;;;6.28;4.47;;;4.90;70.80;;;;;;5017380;28;20021;-83
2023/12/11 00:57:39;;;;;;;6.43;5.00;;;4.90;70.80;;;;;;5036140;28;20056;-84
2023/12/11 01:00:06;;;;;;;6.75;4.63;;;4.90;70.80;;;;;;5017530;28;20075;-83
2023/12/11 01:02:32;;;;;;;6.80;5.20;;;4.90;70.80;;;;;;5016874;28;20391;-82
2023/12/11 01:04:57;;;;;;;7.10;5.07;;;4.90;70.80;;;;;;5017435;28;20030;-83
2023/12/11 01:07:23;;;;;;;6.30;4.72;;;4.90;70.80;;;;;;5035585;28;20095;-83
2023/12/11 01:09:49;;;;;;;6.45;4.90;;;5.00;70.80;;;;;;5018097;28;20052;-82
2023/12/11 01:12:15;;;;;;;6.28;4.57;;;4.90;70.80;;;;;;5017759;28;20033;-82
2023/12/11 01:14:41;;;;;;;5.97;4.35;;;5.00;70.80;;;;;;5035576;28;20096;-83
2023/12/11 01:17:07;;;;;;;7.25;4.97;;;4.90;70.80;;;;;;5017550;28;20025;-83
2023/12/11 01:19:32;;;;;;;5.35;4.40;;;4.90;70.80;;;;;;5017614;28;20029;-83
2023/12/11 01:21:58;;;;;;;7.15;4.95;;;4.90;70.90;;;;;;5035084;28;20116;-83
2023/12/11 01:24:24;;;;;;;6.15;4.53;;;5.00;70.90;;;;;;5018034;28;20494;-83
2023/12/11 01:26:50;;;;;;;6.30;4.32;;;5.00;70.80;;;;;;5017437;28;20025;-84
2023/12/11 01:29:16;;;;;;;6.43;4.70;;;5.00;70.90;;;;;;5033998;28;20117;-84
2023/12/11 01:31:41;;;;;;;6.50;4.82;;;5.00;70.90;;;;;;5034316;28;20037;-83
2023/12/11 01:34:07;;;;;;;6.57;4.63;;;5.00;70.90;;;;;;5035581;28;20033;-83
2023/12/11 01:36:33;;;;;;;6.60;4.95;;;5.00;70.90;;;;;;5034735;28;20486;-84
2023/12/11 01:38:59;;;;;;;6.45;4.82;;;5.00;71.00;;;;;;5017511;28;20032;-83
2023/12/11 01:41:25;;;;;;;6.68;5.15;;;5.00;70.90;;;;;;5017542;28;20476;-83
2023/12/11 01:43:55;;;;;;;6.22;4.47;;;5.00;70.90;;;;;;5034454;28;20033;-82
2023/12/11 01:46:23;;;;;;;6.65;4.85;;;5.00;70.90;;;;;;5016700;28;20021;-82
2023/12/11 01:48:50;;;;;;;6.55;4.75;;;5.00;71.00;;;;;;5016822;28;20026;-82
2023/12/11 01:51:17;;;;;;;5.95;4.75;;;5.00;70.90;;;;;;5027202;28;20108;-82
2023/12/11 01:53:48;;;;;;;7.03;5.22;;;5.00;71.00;;;;;;5014786;28;20077;-82
2023/12/11 01:56:16;;;;;;;6.25;4.68;;;5.00;71.00;;;;;;4997161;28;20037;-83
2023/12/11 01:58:41;;;;;;;6.32;4.95;;;5.00;71.00;;;;;;4997037;28;20093;-83
2023/12/11 02:01:09;;;;;;;7.55;4.88;;;4.90;71.00;;;;;;5002202;28;20021;-84
2023/12/11 02:03:36;;;;;;;7.65;5.05;;;5.00;71.10;;;;;;5002204;28;20464;-85
2023/12/11 02:06:02;;;;;;;6.68;4.57;;;5.00;71.10;;;;;;5015076;28;20026;-83
2023/12/11 02:08:30;;;;;;;8.68;5.82;;;5.00;71.10;;;;;;4997330;28;20096;-83
2023/12/11 02:10:56;;;;;;;7.70;5.63;;;5.00;71.10;;;;;;4996831;28;20084;-84
2023/12/11 02:13:22;;;;;;;7.55;5.13;;;5.00;71.10;;;;;;4996777;28;20030;-82
2023/12/11 02:15:50;;;;;;;7.85;5.25;;;5.00;71.10;;;;;;4996675;28;20044;-81
2023/12/11 02:18:16;;;;;;;7.15;5.28;;;5.00;71.10;;;;;;5006462;28;20033;-84
2023/12/11 02:20:43;;;;;;;7.35;5.25;;;5.00;71.10;;;;;;4996779;28;20041;-82
2023/12/11 02:23:17;;;;;;;7.97;5.47;;;5.00;71.20;;;;;;5013514;28;20056;-82
2023/12/11 02:25:48;;;;;;;8.18;5.25;;;5.00;71.20;;;;;;4996293;28;20380;-82
2023/12/11 02:28:14;;;;;;;9.75;6.55;;;5.00;71.20;;;;;;5014488;28;20040;-83
2023/12/11 02:30:49;;;;;;;8.98;5.50;;;5.00;71.20;;;;;;4996553;28;20520;-84
2023/12/11 02:33:15;;;;;;;9.32;6.55;;;5.00;71.20;;;;;;4977056;28;20043;-83
2023/12/11 02:35:43;;;;;;;9.52;6.18;;;5.00;71.20;;;;;;5012706;28;20040;-82
2023/12/11 02:38:09;;;;;;;8.52;6.00;;;5.00;71.30;;;;;;5000817;28;20034;-83
2023/12/11 02:40:35;;;;;;;10.90;6.85;;;5.00;71.30;;;;;;5033254;28;20052;-83
2023/12/11 02:43:01;;;;;;;11.07;7.38;;;4.90;71.30;;;;;;5019748;28;20029;-83
2023/12/11 02:45:26;;;;;;;11.50;6.97;;;5.00;71.30;;;;;;5023805;28;20045;-84
2023/12/11 02:47:56;;;;;;;12.95;7.32;;;5.00;71.30;;;;;;5017781;28;20033;-84
2023/12/11 02:50:22;;;;;;;10.93;6.63;;;5.00;71.30;;;;;;5001949;28;20025;-83
2023/12/11 02:52:48;;;;;;;9.63;6.32;;;5.00;71.40;;;;;;5036133;28;20438;-83
2023/12/11 02:55:14;;;;;;;9.80;6.78;;;5.00;71.40;;;;;;5037855;28;20483;-82
2023/12/11 02:57:40;;;;;;;7.30;5.68;;;5.00;71.40;;;;;;5020520;28;20116;-82
2023/12/11 03:00:09;;;;;;;8.50;5.70;;;5.00;71.40;;;;;;5037853;28;20033;-83
2023/12/11 03:02:36;;;;;;;9.63;5.95;;;5.00;71.50;;;;;;5020722;28;20530;-85
2023/12/11 03:05:02;;;;;;;9.98;6.00;;;5.00;71.40;;;;;;5020446;28;20116;-83
2023/12/11 03:07:28;;;;;;;8.35;5.45;;;5.00;71.50;;;;;;5020098;28;20137;-83
2023/12/11 03:09:54;;;;;;;9.90;6.10;;;5.00;71.40;;;;;;5037608;28;20040;-84
2023/12/11 03:12:19;;;;;;;8.68;5.72;;;5.00;71.40;;;;;;5037870;28;20057;-82
2023/12/11 03:14:45;;;;;;;9.32;5.15;;;5.00;71.40;;;;;;5037767;28;20060;-83
2023/12/11 03:17:11;;;;;;;9.40;5.97;;;5.00;71.40;;;;;;5037864;28;20353;-83
2023/12/11 03:19:37;;;;;;;7.63;5.35;;;5.00;71.50;;;;;;5037578;28;20109;-84
2023/12/11 03:22:03;;;;;;;9.38;5.90;;;5.00;71.50;;;;;;5037390;28;20055;-83
2023/12/11 03:24:29;;;;;;;8.73;5.80;;;5.00;71.50;;;;;;5037371;28;20116;-81
2023/12/11 03:26:55;;;;;;;8.13;5.22;;;5.10;71.50;;;;;;5037603;28;20033;-84
2023/12/11 03:29:20;;;;;;;7.38;4.90;;;5.00;71.50;;;;;;5019311;28;20036;-83
2023/12/11 03:31:47;;;;;;;7.95;5.10;;;5.10;71.50;;;;;;5019319;28;20128;-85
2023/12/11 03:34:12;;;;;;;6.95;4.75;;;5.10;71.60;;;;;;5019509;28;20060;-83
2023/12/11 03:36:38;;;;;;;6.72;4.63;;;5.10;71.60;;;;;;5037843;28;20029;-85
2023/12/11 03:39:04;;;;;;;5.88;4.22;;;5.10;71.60;;;;;;5019976;28;20164;-86
2023/12/11 03:41:30;;;;;;;6.25;4.53;;;5.10;71.60;;;;;;5037347;28;20061;-85
2023/12/11 03:43:55;;;;;;;6.20;4.75;;;5.10;71.60;;;;;;5052914;28;20028;-84
2023/12/11 03:46:22;;;;;;;6.68;4.45;;;5.10;71.60;;;;;;5019692;28;20030;-84
2023/12/11 03:48:47;;;;;;;5.50;4.00;;;5.10;71.60;;;;;;5019572;28;20064;-85
2023/12/11 03:51:13;;;;;;;6.13;4.38;;;5.10;71.70;;;;;;5036762;28;20081;-85
2023/12/11 03:53:39;;;;;;;6.95;4.32;;;5.10;71.70;;;;;;5037424;28;20040;-85
2023/12/11 03:56:05;;;;;;;6.00;4.00;;;5.10;72.20;;;;;;5019272;28;20052;-83
2023/12/11 03:58:31;;;;;;;6.20;4.80;;;5.00;71.60;;;;;;5036793;28;20017;-84
2023/12/11 04:00:57;;;;;;;7.18;4.47;;;5.10;71.70;;;;;;5036799;28;20109;-83
2023/12/11 04:03:23;;;;;;;6.28;4.55;;;5.10;71.70;;;;;;5037373;28;20061;-86
2023/12/11 04:05:49;;;;;;;5.50;4.15;;;5.10;71.70;;;;;;5039262;28;20079;-82
2023/12/11 04:08:15;;;;;;;5.15;3.92;;;5.00;71.70;;;;;;5041332;28;20048;-84
2023/12/11 04:10:41;;;;;;;4.55;3.70;;;5.10;71.80;;;;;;5021112;28;20033;-85
2023/12/11 04:13:07;;;;;;;5.10;3.75;;;5.00;71.80;;;;;;5036456;28;20148;-84
2023/12/11 04:15:33;;;;;;;5.55;3.83;;;5.10;71.80;;;;;;5021595;28;20099;-84
2023/12/11 04:17:59;;;;;;;4.90;3.80;;;5.10;71.80;;;;;;5021254;28;20037;-84
2023/12/11 04:20:24;;;;;;;5.88;3.75;;;5.10;71.80;;;;;;5036583;28;20025;-85
2023/12/11 04:22:53;;;;;;;4.88;3.63;;;5.10;71.80;;;;;;5035747;28;20064;-84
2023/12/11 04:25:19;;;;;;;4.70;3.53;;;5.10;71.80;;;;;;5036056;28;20041;-86
2023/12/11 04:27:45;;;;;;;4.05;3.30;;;5.10;71.80;;;;;;5035908;28;20037;-82
2023/12/11 04:30:11;;;;;;;6.10;4.18;;;5.10;71.90;;;;;;5036226;28;20025;-85
2023/12/11 04:32:37;;;;;;;5.70;3.60;;;5.10;71.90;;;;;;5018165;28;20042;-83
2023/12/11 04:35:03;;;;;;;4.05;3.40;;;5.10;71.90;;;;;;5014782;28;20028;-83
2023/12/11 04:37:29;;;;;;;4.38;3.65;;;5.10;71.90;;;;;;5016275;28;20022;-85
2023/12/11 04:39:55;;;;;;;5.03;3.88;;;5.10;71.80;;;;;;5017847;28;20030;-85
2023/12/11 04:42:21;;;;;;;5.70;4.30;;;5.10;71.80;;;;;;5018111;28;20120;-84
2023/12/11 04:44:47;;;;;;;6.53;5.10;;;5.10;72.40;;;;;;5019615;28;20526;-86
2023/12/11 04:47:12;;;;;;;7.70;4.90;;;5.10;71.80;;;;;;5022842;28;20034;-84
2023/12/11 04:49:38;;;;;;;6.38;4.32;;;5.10;71.90;;;;;;5039995;28;20383;-84
2023/12/11 04:52:04;;;;;;;6.32;4.50;;;5.10;71.90;;;;;;5040305;28;20088;-84
2023/12/11 04:54:30;;;;;;;8.25;5.30;;;5.10;71.80;;;;;;5025231;28;20073;-85
2023/12/11 04:56:56;;;;;;;7.05;4.97;;;5.10;71.80;;;;;;5024842;28;20084;-84
2023/12/11 04:59:21;;;;;;;7.43;4.93;;;5.10;71.90;;;;;;5016762;28;20109;-84
2023/12/11 05:01:47;;;;;;;11.00;7.85;;;5.10;71.90;;;;;;5016672;28;20026;-84
2023/12/11 05:04:13;;;;;;;8.63;6.63;;;5.10;71.80;;;;;;5015972;28;20018;-82
2023/12/11 05:06:39;;;;;;;10.38;6.68;;;5.10;71.90;;;;;;4998182;28;20025;-82
2023/12/11 05:09:04;;;;;;;9.30;6.55;;;5.10;71.90;;;;;;5015354;28;20117;-85
2023/12/11 05:11:30;;;;;;;8.10;6.00;;;5.10;71.90;;;;;;4998245;28;20084;-84
2023/12/11 05:13:56;;;;;;;9.52;6.55;;;5.10;71.90;;;;;;5015568;28;20350;-83
2023/12/11 05:16:22;;;;;;;9.63;6.25;;;5.10;71.90;;;;;;5015702;28;20030;-83
2023/12/11 05:18:50;;;;;;;8.00;5.40;;;5.10;71.90;;;;;;4998217;28;20434;-83
2023/12/11 05:21:16;;;;;;;7.88;5.38;;;5.10;71.90;;;;;;4998068;28;20034;-85
2023/12/11 05:23:45;;;;;;;7.88;5.18;;;5.10;72.00;;;;;;5016258;28;20025;-85
2023/12/11 05:26:17;;;;;;;7.93;5.80;;;5.10;71.90;;;;;;5015649;28;20029;-85
2023/12/11 05:28:43;;;;;;;8.27;5.90;;;5.20;72.00;;;;;;4997915;28;20038;-83
2023/12/11 05:31:11;;;;;;;7.50;5.75;;;5.10;71.90;;;;;;5014941;28;20036;-85
2023/12/11 05:33:40;;;;;;;6.68;4.90;;;5.10;71.90;;;;;;5015138;28;20045;-82
2023/12/11 05:36:09;;;;;;;7.00;5.10;;;5.10;72.50;;;;;;4997973;28;20053;-83
2023/12/11 05:38:38;;;;;;;7.65;5.07;;;5.20;72.00;;;;;;5015162;28;20076;-84
2023/12/11 05:41:05;;;;;;;6.57;4.80;;;5.20;72.00;;;;;;5014936;28;20033;-86
2023/12/11 05:43:30;;;;;;;5.65;4.35;;;5.20;72.00;;;;;;5015372;28;20026;-83
2023/12/11 05:45:56;;;;;;;7.43;5.20;;;5.20;72.00;;;;;;4997330;28;20033;-82
2023/12/11 05:48:22;;;;;;;6.25;4.47;;;5.20;72.00;;;;;;4997456;28;20022;-82
2023/12/11 05:50:48;;;;;;;4.60;3.83;;;5.20;72.00;;;;;;5015708;28;20030;-86
2023/12/11 05:53:14;;;;;;;6.57;4.55;;;5.20;72.00;;;;;;5034297;28;20030;-82
2023/12/11 05:55:39;;;;;;;5.63;4.38;;;5.20;72.00;;;;;;5034933;28;20041;-85
2023/12/11 05:58:05;;;;;;;5.68;4.40;;;5.20;72.00;;;;;;5017108;28;20026;-84
2023/12/11 06:00:31;;;;;;;8.00;6.10;;;5.20;72.00;;;;;;5004996;28;20033;-85
2023/12/11 06:03:02;;;;;;;8.18;5.88;;;5.20;72.00;;;;;;5015866;28;20052;-84
2023/12/11 06:05:31;;;;;;;8.18;5.07;;;5.20;72.00;;;;;;5037055;28;20103;-87
2023/12/11 06:07:57;;;;;;;6.57;5.00;;;5.20;72.00;;;;;;5038193;28;20391;-88
2023/12/11 06:10:29;;;;;;;6.57;4.88;;;5.20;72.00;;;;;;5036978;28;20018;-87
2023/12/11 06:12:55;;;;;;;5.75;4.60;;;5.30;72.00;;;;;;5018457;28;20394;-88
2023/12/11 06:15:24;;;;;;;7.13;5.47;;;5.30;72.00;;;;;;5037332;28;20032;-90
2023/12/11 06:17:50;;;;;;;7.30;4.95;;;5.30;72.00;;;;;;5037951;28;20030;-87
2023/12/11 06:20:19;;;;;;;6.40;5.00;;;5.30;72.00;;;;;;5037183;28;20101;-89
2023/12/11 06:22:48;;;;;;;5.13;4.32;;;5.30;71.90;;;;;;5017550;28;20022;-86
2023/12/11 06:25:14;;;;;;;5.53;4.60;;;5.30;71.90;;;;;;5038617;28;20036;-83
2023/12/11 06:27:39;;;;;;;5.25;4.45;;;5.30;71.90;;;;;;5039200;28;20034;-81
2023/12/11 06:30:07;;;;;;;5.70;4.40;;;5.30;71.90;;;;;;5017772;28;20483;-84
2023/12/11 06:32:33;;;;;;;4.57;3.80;;;5.30;71.90;;;;;;5016034;28;20053;-87
2023/12/11 06:34:59;;;;;;;5.57;3.70;;;5.30;71.90;;;;;;5042019;28;20022;-87
2023/12/11 06:37:29;;;;;;;5.85;4.00;;;5.30;71.90;;;;;;5013513;28;20029;-82
2023/12/11 06:39:55;;;;;;;4.93;3.85;;;5.40;72.00;;;;;;5017825;28;20112;-79
2023/12/11 06:42:21;;;;;;;4.65;3.97;;;5.40;71.90;;;;;;5018688;28;20431;-82
2023/12/11 06:44:46;;;;;;;5.47;4.03;;;5.40;72.00;;;;;;5014171;28;20025;-81
2023/12/11 06:47:13;;;;;;;5.20;3.70;;;5.40;71.90;;;;;;5016672;28;20037;-81
2023/12/11 06:49:42;;;;;;;4.43;3.70;;;5.40;71.90;;;;;;5035276;28;20100;-85
2023/12/11 06:52:08;;;;;;;4.35;3.65;;;5.40;71.90;;;;;;5014997;28;20107;-80
2023/12/11 06:54:34;;;;;;;4.72;3.70;;;5.50;72.00;;;;;;5016031;28;20057;-80
2023/12/11 06:57:00;;;;;;;6.05;4.13;;;5.50;71.90;;;;;;5016138;28;20053;-84
2023/12/11 06:59:26;;;;;;;4.28;3.40;;;5.50;71.90;;;;;;5035149;28;20109;-89
2023/12/11 07:01:55;;;;;;;4.53;3.60;;;5.50;71.80;;;;;;5038908;28;20582;-89
2023/12/11 07:04:21;;;;;;;4.38;3.67;;;5.50;71.70;;;;;;5018106;28;20498;-89
2023/12/11 07:06:46;;;;;;;3.97;3.47;;;5.50;71.70;;;;;;5034171;28;20025;-86
2023/12/11 07:09:12;;;;;;;4.88;3.55;;;5.60;71.90;;;;;;5016929;28;20026;-84
2023/12/11 07:11:38;;;;;;;3.95;3.25;;;5.60;71.80;;;;;;5033956;28;20029;-82
2023/12/11 07:14:04;;;;;;;3.97;3.22;;;5.60;71.70;;;;;;5034267;28;20034;-86
2023/12/11 07:16:34;;;;;;;4.35;3.70;;;5.60;71.70;;;;;;5015814;28;20030;-83
2023/12/11 07:19:00;;;;;;;4.30;3.35;;;5.60;71.70;;;;;;5048833;28;20047;-84
2023/12/11 07:21:25;;;;;;;4.80;3.65;;;5.60;71.70;;;;;;5016072;28;20117;-83
2023/12/11 07:23:51;;;;;;;4.05;3.50;;;5.70;71.70;;;;;;5015840;28;20036;-83
2023/12/11 07:26:19;;;;;;;3.97;3.50;;;5.70;71.60;;;;;;5034547;28;20029;-90
2023/12/11 07:28:45;;;;;;;3.58;3.10;;;5.70;71.60;;;;;;5039809;28;20349;-87
2023/12/11 07:31:11;;;;;;;4.10;3.38;;;5.70;71.60;;;;;;5019945;28;20087;-87
2023/12/11 07:33:37;;;;;;;4.80;3.63;;;5.80;71.60;;;;;;5019127;28;20029;-89
2023/12/11 07:36:04;;;;;;;4.05;3.53;;;5.80;71.60;;;;;;5021642;28;20033;-89
2023/12/11 07:38:30;;;;;;;5.28;3.60;;;5.80;71.50;;;;;;5039440;28;20378;-84
2023/12/11 07:40:57;;;;;;;4.28;3.35;;;5.80;71.50;;;;;;5036613;28;20030;-89
2023/12/11 07:43:23;;;;;;;4.47;3.83;;;5.80;71.50;;;;;;5034549;28;20475;-87
2023/12/11 07:45:49;;;;;;;3.95;3.35;;;5.90;71.50;;;;;;5018244;28;20037;-85
2023/12/11 07:48:15;;;;;;;4.25;3.25;;;5.90;71.40;;;;;;5009987;28;20040;-84
2023/12/11 07:50:40;;;;;;;4.65;3.50;;;5.90;71.40;;;;;;5035910;28;20380;-85
2023/12/11 07:53:06;;;;;;;4.22;3.63;;;5.90;71.40;;;;;;5019005;28;20022;-87
2023/12/11 07:55:34;;;;;;;5.82;3.67;;;5.90;71.30;;;;;;5018767;28;20034;-87
2023/12/11 07:58:00;;;;;;;4.28;3.53;;;6.00;71.40;;;;;;5036252;28;20036;-89
2023/12/11 08:00:25;;;;;;;4.28;3.60;;;6.00;71.30;;;;;;5037535;28;20372;-84
2023/12/11 08:02:51;;;;;;;4.65;3.50;;;6.00;71.30;;;;;;5036743;28;20036;-84
2023/12/11 08:05:17;;;;;;;5.07;3.80;;;6.00;71.30;;;;;;5020780;28;20028;-84
2023/12/11 08:07:43;;;;;;;4.80;4.00;;;6.00;71.30;;;;;;5037451;28;20030;-86
2023/12/11 08:10:10;;;;;;;4.63;3.83;;;6.00;71.30;;;;;;5018275;28;20031;-81
2023/12/11 08:12:36;;;;;;;4.47;3.85;;;6.00;71.30;;;;;;5036174;28;20033;-86
2023/12/11 08:15:03;;;;;;;6.00;4.30;;;6.00;71.20;;;;;;5019211;28;20407;-84
2023/12/11 08:17:29;;;;;;;4.90;4.22;;;6.10;71.20;;;;;;5019943;28;20032;-88
2023/12/11 08:19:55;;;;;;;4.20;3.63;;;6.10;71.20;;;;;;5044252;28;20364;-89
2023/12/11 08:22:21;;;;;;;5.25;4.18;;;6.10;71.20;;;;;;5041375;28;20415;-84
2023/12/11 08:24:47;;;;;;;5.53;4.10;;;6.10;71.20;;;;;;5043320;28;20037;-82
2023/12/11 08:27:14;;;;;;;5.55;4.13;;;6.10;71.10;;;;;;5023682;28;20034;-84
2023/12/11 08:29:40;;;;;;;6.00;4.47;;;6.10;71.10;;;;;;5032486;28;20467;-86
2023/12/11 08:32:06;;;;;;;5.50;4.50;;;6.10;71.10;;;;;;5024676;28;20040;-82
2023/12/11 08:34:32;;;;;;;6.38;4.50;;;6.10;71.10;;;;;;5036986;28;20041;-86
2023/12/11 08:36:58;;;;;;;6.57;4.70;;;6.10;71.10;;;;;;5036294;28;20038;-85
2023/12/11 08:39:24;;;;;;;7.07;5.28;;;6.10;71.20;;;;;;5036175;28;20040;-87
2023/12/11 08:41:50;;;;;;;7.07;5.20;;;6.20;71.10;;;;;;5016890;28;20382;-82
2023/12/11 08:44:16;;;;;;;8.43;5.65;;;6.20;71.10;;;;;;5034781;28;20033;-85
2023/12/11 08:46:43;;;;;;;6.95;5.03;;;6.20;71.10;;;;;;5016536;28;20116;-84
2023/12/11 08:49:10;;;;;;;8.68;5.85;;;6.20;71.00;;;;;;5016442;28;20033;-79
2023/12/11 08:51:36;;;;;;;9.30;6.20;;;6.20;71.00;;;;;;5016886;28;20057;-84
2023/12/11 08:54:02;;;;;;;9.60;6.75;;;6.20;71.00;;;;;;5035222;28;20025;-84
2023/12/11 08:56:28;;;;;;;11.02;6.28;;;6.30;71.00;;;;;;5016875;28;20034;-83
2023/12/11 08:58:53;;;;;;;9.80;6.53;;;6.30;70.90;;;;;;5014087;28;20428;-85
2023/12/11 09:01:19;;;;;;;10.13;6.43;;;6.30;71.00;;;;;;5015728;28;20034;-84
2023/12/11 09:03:46;;;;;;;8.30;5.68;;;6.30;70.90;;;;;;5016722;28;20128;-85
2023/12/11 09:06:15;;;;;;;6.35;5.07;;;6.30;70.90;;;;;;5018168;28;20730;-87
2023/12/11 09:08:41;;;;;;;7.53;5.15;;;6.40;70.80;;;;;;5016739;28;20072;-88
2023/12/11 09:11:07;;;;;;;6.82;4.85;;;6.40;70.80;;;;;;5034722;28;20041;-86
2023/12/11 09:13:33;;;;;;;7.68;4.85;;;6.40;70.70;;;;;;5017141;28;20025;-85
2023/12/11 09:15:59;;;;;;;7.68;5.25;;;6.40;70.70;;;;;;5017470;28;20025;-84
2023/12/11 09:18:25;;;;;;;5.88;4.20;;;6.50;70.70;;;;;;5016589;28;20042;-84
2023/12/11 09:20:51;;;;;;;6.82;4.50;;;6.50;70.70;;;;;;5033028;28;20096;-85
2023/12/11 09:23:16;;;;;;;5.00;4.18;;;6.60;70.70;;;;;;5018014;28;20025;-87
2023/12/11 09:25:44;;;;;;;5.68;4.20;;;6.60;70.70;;;;;;5034493;28;20029;-84
2023/12/11 09:28:09;;;;;;;5.50;3.90;;;6.60;70.60;;;;;;5033946;28;20112;-83
2023/12/11 09:30:35;;;;;;;5.40;4.25;;;6.70;71.20;;;;;;5016654;28;20117;-88
2023/12/11 09:33:01;;;;;;;4.97;3.85;;;6.70;71.10;;;;;;5034523;28;20478;-83
2023/12/11 09:35:27;;;;;;;5.68;4.15;;;6.70;70.40;;;;;;5034659;28;20029;-85
2023/12/11 09:37:53;;;;;;;6.03;4.00;;;6.80;70.40;;;;;;5034455;28;20017;-81
2023/12/11 09:40:19;;;;;;;5.25;3.78;;;6.80;70.40;;;;;;5014975;28;20172;-89
2023/12/11 09:42:46;;;;;;;5.70;4.18;;;6.80;70.30;;;;;;5035711;28;20032;-88
2023/12/11 09:45:15;;;;;;;4.85;3.65;;;6.80;70.30;;;;;;5018918;28;20160;-91
2023/12/11 09:47:53;;;;;;;4.85;3.63;;;6.80;70.30;;;;;;5018671;28;20021;-87
2023/12/11 09:50:19;;;;;;;5.50;3.58;;;6.80;70.30;;;;;;5019271;28;20484;-89
2023/12/11 09:52:45;;;;;;;4.90;3.88;;;6.80;70.30;;;;;;5020195;28;20446;-89
2023/12/11 09:55:11;;;;;;;4.50;3.60;;;6.90;70.30;;;;;;5016478;28;20033;-90
2023/12/11 09:57:39;;;;;;;5.10;4.00;;;6.90;70.20;;;;;;5035235;28;20065;-85
2023/12/11 10:00:07;;;;;;;4.97;3.85;;;6.90;70.30;;;;;;5016688;28;20467;-88
2023/12/11 10:02:33;;;;;;;4.88;3.92;;;6.90;70.20;;;;;;5016387;28;20079;-88
2023/12/11 10:05:07;;;;;;;6.90;4.40;;;6.90;70.20;;;;;;5018220;28;20546;-89
2023/12/11 10:07:35;;;;;;;7.03;4.75;;;7.00;70.70;;;;;;5035956;28;20079;-84
2023/12/11 10:10:33;;;;;;;6.10;4.53;;;7.00;70.10;;;;;;5016982;28;20075;-85
2023/12/11 10:13:03;;;;;;;11.35;5.65;;;7.00;70.00;;;;;;5016760;28;20037;-83
2023/12/11 10:15:31;;;;;;;10.57;6.60;;;7.00;70.00;;;;;;5016336;28;20391;-86
2023/12/11 10:18:09;;;;;;;8.52;5.95;;;7.00;69.90;;;;;;5034124;28;20352;-85
2023/12/11 10:20:37;;;;;;;10.30;6.70;;;7.00;69.90;;;;;;5017984;28;20079;-84
2023/12/11 10:23:15;;;;;;;8.93;6.00;;;7.00;69.90;;;;;;5034276;28;20040;-86
2023/12/11 10:25:47;;;;;;;9.50;6.38;;;7.00;69.90;;;;;;5033917;28;20034;-88
2023/12/11 10:28:15;;;;;;;9.55;6.22;;;7.00;69.90;;;;;;5033747;28;20033;-87
2023/12/11 10:30:53;;;;;;;9.73;6.18;;;7.00;70.00;;;;;;5033463;28;20026;-86
2023/12/11 10:33:24;;;;;;;8.93;6.25;;;7.00;69.90;;;;;;5032273;28;20365;-83
2023/12/11 10:35:50;;;;;;;8.43;6.22;;;7.00;70.00;;;;;;5034547;28;20062;-87
2023/12/11 10:38:23;;;;;;;9.27;6.32;;;7.00;70.00;;;;;;5033901;28;20084;-87
2023/12/11 10:40:50;;;;;;;8.85;6.60;;;7.00;70.00;;;;;;5016184;28;20026;-88
2023/12/11 10:43:16;;;;;;;8.70;6.20;;;7.00;70.00;;;;;;5019787;28;20025;-89
2023/12/11 10:45:43;;;;;;;9.70;6.57;;;7.00;70.00;;;;;;5016237;28;20025;-85
2023/12/11 10:48:08;;;;;;;11.55;6.82;;;7.00;69.90;;;;;;5016023;28;20033;-84
2023/12/11 10:50:35;;;;;;;9.43;6.35;;;7.00;70.00;;;;;;5033438;28;20084;-88
2023/12/11 10:53:03;;;;;;;9.45;6.78;;;7.00;70.00;;;;;;5032843;28;20053;-84
2023/12/11 10:55:33;;;;;;;8.55;6.22;;;7.00;69.90;;;;;;5014335;28;20759;-85
2023/12/11 10:58:03;;;;;;;10.57;6.78;;;7.00;69.90;;;;;;5014616;28;20538;-84
2023/12/11 11:00:32;;;;;;;8.27;5.95;;;7.00;70.50;;;;;;5032889;28;20372;-83
2023/12/11 11:02:59;;;;;;;8.52;5.90;;;7.00;70.00;;;;;;5035995;28;20025;-84
2023/12/11 11:05:28;;;;;;;9.07;6.63;;;7.00;69.90;;;;;;5035788;28;20021;-86
2023/12/11 11:08:19;;;;;;;8.98;6.75;;;7.00;70.00;;;;;;5033944;28;20018;-84
2023/12/11 11:10:58;;;;;;;9.27;5.85;;;6.90;69.90;;;;;;5035258;28;20026;-83
2023/12/11 11:13:36;;;;;;;8.55;5.88;;;6.90;70.00;;;;;;5017040;28;20483;-84
2023/12/11 11:16:03;;;;;;;7.60;5.93;;;6.90;70.00;;;;;;5001357;28;20040;-85
2023/12/11 11:18:29;;;;;;;8.98;5.63;;;6.90;70.00;;;;;;5035871;28;20017;-87
2023/12/11 11:21:12;;;;;;;6.78;5.55;;;6.90;70.10;;;;;;5035595;28;20026;-84
2023/12/11 11:23:42;;;;;;;8.48;5.80;;;6.90;70.10;;;;;;5034974;28;20032;-84
2023/12/11 11:26:35;;;;;;;7.03;5.03;;;6.90;70.20;;;;;;5041703;28;20052;-83
2023/12/11 11:29:05;;;;;;;7.40;5.28;;;6.90;70.20;;;;;;5025142;28;20455;-81
2023/12/11 11:32:00;;;;;;;7.45;6.20;;;6.80;70.70;;;;;;5016339;28;20037;-84
2023/12/11 11:34:41;;;;;;;7.70;5.13;;;6.90;70.20;;;;;;5005777;28;20048;-82
2023/12/11 11:37:08;;;;;;;6.22;4.80;;;6.90;70.20;;;;;;5015835;28;20046;-83
2023/12/11 11:39:58;;;;;;;7.03;5.20;;;6.80;70.20;;;;;;5017253;28;20041;-83
2023/12/11 11:42:24;;;;;;;5.90;4.57;;;6.80;70.20;;;;;;5033355;28;20037;-83
2023/12/11 11:45:01;;;;;;;7.57;4.85;;;6.90;70.20;;;;;;5014906;28;20022;-81
2023/12/11 11:47:28;;;;;;;6.13;4.55;;;6.80;70.20;;;;;;5033415;28;20037;-81
2023/12/11 11:50:03;;;;;;;5.93;4.57;;;6.80;70.80;;;;;;5014256;28;20096;-79
2023/12/11 11:52:29;;;;;;;;;;;6.80;70.20;;;;;;5017678;28;20439;-81
2023/12/11 11:55:01;;;;;;;6.40;4.75;;;6.80;70.30;;;;;;5035708;28;19917;-79
2023/12/11 11:57:30;;;;;;;4.78;4.20;;;6.80;70.20;;;;;;5034990;28;20463;-77
2023/12/11 11:59:56;;;;;;;5.78;4.50;;;6.80;70.20;;;;;;5034346;28;20025;-78
2023/12/11 12:02:23;;;;;;;6.13;4.80;;;6.80;70.30;;;;;;5015161;28;20026;-77
2023/12/11 12:04:49;;;;;;;6.32;4.60;;;6.80;70.30;;;;;;5015993;28;20379;-78
2023/12/11 12:07:15;;;;;;;5.72;4.40;;;6.80;70.30;;;;;;5034611;28;20033;-80
2023/12/11 12:09:41;;;;;;;5.53;4.50;;;6.80;70.40;;;;;;5031582;28;20028;-79
2023/12/11 12:12:14;;;;;;;5.78;4.82;;;6.80;70.30;;;;;;5014455;28;20068;-82
2023/12/11 12:14:40;;;;;;;4.90;4.03;;;6.80;70.40;;;;;;5035138;28;20041;-84
2023/12/11 12:17:11;;;;;;;6.00;4.60;;;6.80;70.40;;;;;;5000297;28;20021;-77
2023/12/11 12:19:37;;;;;;;4.88;4.13;;;6.80;70.40;;;;;;5031715;28;20026;-79
2023/12/11 12:22:04;;;;;;;5.50;4.40;;;6.80;70.40;;;;;;5016478;28;20540;-80
2023/12/11 12:24:30;;;;;;;5.35;4.65;;;6.80;70.40;;;;;;5019732;28;20033;-81
2023/12/11 12:27:05;;;;;;;6.15;4.60;;;6.70;70.30;;;;;;5042004;28;20049;-81
2023/12/11 12:29:32;;;;;;;5.13;4.43;;;6.70;70.40;;;;;;5034686;28;20021;-81
2023/12/11 12:32:02;;;;;;;5.53;4.57;;;6.70;70.50;;;;;;5033016;28;20033;-83
2023/12/11 12:34:30;;;;;;;5.47;4.30;;;6.70;70.50;;;;;;5014990;28;20040;-80
2023/12/11 12:36:57;;;;;;;4.93;4.10;;;6.60;70.50;;;;;;5014869;28;20502;-80
2023/12/11 12:39:23;;;;;;;6.30;4.60;;;6.60;70.50;;;;;;5015426;28;20033;-83
2023/12/11 12:41:49;;;;;;;6.97;5.30;;;6.60;70.50;;;;;;5015777;28;20052;-81
2023/12/11 12:44:19;;;;;;;5.47;4.55;;;6.60;70.60;;;;;;5015607;28;20488;-80
2023/12/11 12:46:45;;;;;;;5.93;4.57;;;6.60;70.70;;;;;;5015666;28;20049;-82
2023/12/11 12:49:16;;;;;;;6.18;4.97;;;6.60;70.70;;;;;;5013576;28;20428;-81
2023/12/11 12:51:44;;;;;;;7.13;4.95;;;6.50;70.60;;;;;;5033710;28;20052;-81
2023/12/11 12:54:14;;;;;;;7.25;4.93;;;6.50;70.70;;;;;;5015794;28;20088;-81
2023/12/11 12:56:41;;;;;;;7.03;4.72;;;6.50;70.70;;;;;;5015468;28;20029;-84
2023/12/11 12:59:07;;;;;;;6.18;4.93;;;6.50;70.80;;;;;;5033813;28;20036;-83